Terminal Aerodrome Forecast
Issued by NWS

Home | Current Version | Previous Version | Text Only | Print | Product List | Glossary On
Versions: 1 2 3 4 5 6 7 8 9 10 11 12 13 14 15 16 17 18 19 20
000
FTUS42 KTAE 011309 AAA
TAFVLD
TAF AMD
KVLD 011309Z 0113/0212 07005KT P6SM OVC005
     FM011400 VRB04KT P6SM SCT040
     FM011800 13005KT P6SM VCSH BKN040
      TEMPO 0120/0124 5SM TSRA FEW010 BKN035CB
     FM020300 00000KT P6SM BKN250=

USA.gov is the U.S. government's official web portal to all federal, state and local government web resources and services.